Terminal Aerodrome Forecast
Issued by NWS Sterling, VA

Current Version | Previous Version | Text Only | Print | Product List | Glossary On
Versions: 1 2 3 4 5 6 7 8 9 10 11 12 13
000
FTUS41 KLWX 011146
TAFCHO
TAF
KCHO 011146Z 0112/0212 18006KT P6SM SCT150
     FM011600 24006KT P6SM SCT050
     FM012300 24004KT P6SM SCT200
     FM020100 00000KT P6SM SCT200=

USA.gov is the U.S. government's official web portal to all federal, state and local government web resources and services.